NCAR-RAP Real-Time Weather Data

Output produced by METARs form (08 May 2021  00:29 UTC)
found at http://weather.rap.ucar.edu/surface/
 
KUIN 072354Z AUTO 35010KT 10SM CLR 18/M02 A2999 RMK AO2 SLP155 T01831022 10222 20183 58004
KUIN 072254Z AUTO 33013G20KT 10SM CLR 20/M01 A3000 RMK AO2 PK WND 33027/2209 SLP157 T02001006
KUIN 072154Z AUTO 33016G25KT 10SM CLR 21/01 A3000 RMK AO2 PK WND 30031/2109 SLP159 T02060011
KUIN 072054Z AUTO 32019G26KT 10SM CLR 21/02 A3000 RMK AO2 PK WND 33029/2001 SLP160 T02110017 56007
KUIN 071954Z AUTO 32020G27KT 10SM SCT080 22/03 A3001 RMK AO2 PK WND 32031/1859 SLP160 T02170028
KUIN 071854Z AUTO 30012G27KT 10SM FEW080 21/03 A3002 RMK AO2 PK WND 29036/1824 SLP162 T02110033
KUIN 071754Z AUTO 29018G29KT 10SM CLR 21/03 A3003 RMK AO2 PK WND 28029/1729 SLP166 T02110028 10217 20061 58011
KUIN 071654Z AUTO 29016G25KT 10SM CLR 21/03 A3004 RMK AO2 PK WND 30033/1556 SLP172 T02060033
KUIN 071554Z AUTO 28018G31KT 10SM CLR 19/03 A3005 RMK AO2 PK WND 26032/1531 SLP175 T01890028
KUIN 071454Z AUTO 28014G22KT 10SM CLR 17/04 A3006 RMK AO2 SLP177 T01720039 58009
KUIN 071354Z AUTO 25010G19KT 10SM CLR 14/03 A3007 RMK AO2 SLP182 T01440033
KUIN 071254Z AUTO 23007KT 10SM CLR 11/03 A3008 RMK AO2 SLP187 T01060033
KUIN 071154Z AUTO 23006KT 10SM CLR 06/02 A3009 RMK AO2 SLP189 T00610022 10083 20033 53001
KUIN 071054Z AUTO 23006KT 10SM CLR 04/01 A3008 RMK AO2 SLP186 T00440011
KUIN 070954Z AUTO 23004KT 10SM CLR 03/01 A3008 RMK AO2 SLP188 T00330006